sensor_id;sensor_type;location;lat;lon;timestamp;pressure;altitude;pressure_sealevel;temperature;humidity
3668;BME280;24099;47.102;15.440;2023-04-27T00:00:43;97323.56;;;5.83;100.00
3668;BME280;24099;47.102;15.440;2023-04-27T00:03:14;97319.97;;;5.66;100.00
3668;BME280;24099;47.102;15.440;2023-04-27T00:06:02;97321.47;;;5.69;100.00
3668;BME280;24099;47.102;15.440;2023-04-27T00:08:30;97321.44;;;5.78;100.00
3668;BME280;24099;47.102;15.440;2023-04-27T00:11:03;97323.84;;;5.90;100.00
3668;BME280;24099;47.102;15.440;2023-04-27T00:13:32;97315.19;;;5.89;100.00
3668;BME280;24099;47.102;15.440;2023-04-27T00:16:02;97318.81;;;5.78;100.00
3668;BME280;24099;47.102;15.440;2023-04-27T00:18:30;97317.69;;;5.81;100.00
3668;BME280;24099;47.102;15.440;2023-04-27T00:20:59;97314.72;;;5.76;100.00
3668;BME280;24099;47.102;15.440;2023-04-27T00:23:28;97308.19;;;5.90;100.00
3668;BME280;24099;47.102;15.440;2023-04-27T00:28:51;97306.94;;;5.66;100.00
3668;BME280;24099;47.102;15.440;2023-04-27T00:31:22;97307.47;;;5.70;100.00
3668;BME280;24099;47.102;15.440;2023-04-27T00:33:51;97315.00;;;5.73;100.00
3668;BME280;24099;47.102;15.440;2023-04-27T00:36:27;97309.38;;;5.95;100.00
3668;BME280;24099;47.102;15.440;2023-04-27T00:38:55;97305.13;;;5.67;100.00
3668;BME280;24099;47.102;15.440;2023-04-27T00:41:24;97312.53;;;5.53;100.00
3668;BME280;24099;47.102;15.440;2023-04-27T00:43:56;97304.06;;;6.05;100.00
3668;BME280;24099;47.102;15.440;2023-04-27T00:46:26;97300.47;;;6.06;100.00
3668;BME280;24099;47.102;15.440;2023-04-27T00:48:57;97301.00;;;5.92;100.00
3668;BME280;24099;47.102;15.440;2023-04-27T00:51:28;97299.19;;;5.74;100.00
3668;BME280;24099;47.102;15.440;2023-04-27T00:54:00;97307.59;;;5.50;100.00
3668;BME280;24099;47.102;15.440;2023-04-27T00:56:39;97305.16;;;5.84;100.00
3668;BME280;24099;47.102;15.440;2023-04-27T00:59:09;97308.69;;;5.93;100.00
3668;BME280;24099;47.102;15.440;2023-04-27T01:01:40;97311.63;;;5.80;100.00
3668;BME280;24099;47.102;15.440;2023-04-27T01:04:09;97306.06;;;5.75;100.00
3668;BME280;24099;47.102;15.440;2023-04-27T01:06:37;97312.03;;;5.40;100.00
3668;BME280;24099;47.102;15.440;2023-04-27T01:09:05;97312.38;;;5.55;100.00
3668;BME280;24099;47.102;15.440;2023-04-27T01:11:35;97315.88;;;5.64;100.00
3668;BME280;24099;47.102;15.440;2023-04-27T01:14:06;97323.22;;;5.33;100.00
3668;BME280;24099;47.102;15.440;2023-04-27T01:16:40;97325.50;;;5.18;100.00
3668;BME280;24099;47.102;15.440;2023-04-27T01:19:10;97328.28;;;5.34;100.00
3668;BME280;24099;47.102;15.440;2023-04-27T01:21:40;97329.19;;;5.43;100.00
3668;BME280;24099;47.102;15.440;2023-04-27T01:24:15;97337.19;;;5.04;100.00
3668;BME280;24099;47.102;15.440;2023-04-27T01:26:44;97334.38;;;5.25;100.00
3668;BME280;24099;47.102;15.440;2023-04-27T01:29:17;97337.56;;;5.46;100.00
3668;BME280;24099;47.102;15.440;2023-04-27T01:31:51;97331.44;;;5.01;100.00
3668;BME280;24099;47.102;15.440;2023-04-27T01:34:19;97344.69;;;4.80;100.00
3668;BME280;24099;47.102;15.440;2023-04-27T01:36:49;97344.09;;;5.33;100.00
3668;BME280;24099;47.102;15.440;2023-04-27T01:39:22;97343.34;;;5.13;100.00
3668;BME280;24099;47.102;15.440;2023-04-27T01:41:56;97339.66;;;5.06;100.00
3668;BME280;24099;47.102;15.440;2023-04-27T01:44:25;97339.72;;;4.87;100.00
3668;BME280;24099;47.102;15.440;2023-04-27T01:46:54;97349.91;;;4.80;100.00
3668;BME280;24099;47.102;15.440;2023-04-27T01:49:21;97349.31;;;4.96;100.00
3668;BME280;24099;47.102;15.440;2023-04-27T01:51:55;97345.63;;;4.89;100.00
3668;BME280;24099;47.102;15.440;2023-04-27T01:54:24;97349.88;;;4.90;100.00
3668;BME280;24099;47.102;15.440;2023-04-27T01:56:52;97352.53;;;4.70;100.00
3668;BME280;24099;47.102;15.440;2023-04-27T01:59:23;97345.41;;;4.63;100.00
3668;BME280;24099;47.102;15.440;2023-04-27T02:01:56;97348.84;;;4.73;100.00
3668;BME280;24099;47.102;15.440;2023-04-27T02:04:24;97354.84;;;4.83;100.00
3668;BME280;24099;47.102;15.440;2023-04-27T02:06:52;97355.16;;;4.61;100.00
3668;BME280;24099;47.102;15.440;2023-04-27T02:09:21;97353.13;;;4.45;100.00
3668;BME280;24099;47.102;15.440;2023-04-27T02:11:53;97363.69;;;4.53;100.00
3668;BME280;24099;47.102;15.440;2023-04-27T02:14:30;97366.28;;;4.43;100.00
3668;BME280;24099;47.102;15.440;2023-04-27T02:17:12;97362.03;;;4.62;100.00
3668;BME280;24099;47.102;15.440;2023-04-27T02:19:48;97365.38;;;4.35;100.00
3668;BME280;24099;47.102;15.440;2023-04-27T02:22:16;97366.44;;;4.52;100.00
3668;BME280;24099;47.102;15.440;2023-04-27T02:24:44;97356.97;;;4.22;100.00
3668;BME280;24099;47.102;15.440;2023-04-27T02:27:13;97368.09;;;4.24;100.00
3668;BME280;24099;47.102;15.440;2023-04-27T02:29:44;97360.97;;;4.35;100.00
3668;BME280;24099;47.102;15.440;2023-04-27T02:32:12;97360.97;;;4.06;100.00
3668;BME280;24099;47.102;15.440;2023-04-27T02:34:40;97366.06;;;3.98;100.00
3668;BME280;24099;47.102;15.440;2023-04-27T02:37:11;97378.41;;;4.15;100.00
3668;BME280;24099;47.102;15.440;2023-04-27T02:39:41;97368.09;;;4.33;100.00
3668;BME280;24099;47.102;15.440;2023-04-27T02:42:14;97370.59;;;4.15;100.00
3668;BME280;24099;47.102;15.440;2023-04-27T02:44:48;97367.81;;;3.88;100.00
3668;BME280;24099;47.102;15.440;2023-04-27T02:47:18;97369.34;;;4.20;100.00
3668;BME280;24099;47.102;15.440;2023-04-27T02:49:46;97362.59;;;4.27;100.00
3668;BME280;24099;47.102;15.440;2023-04-27T02:52:14;97372.22;;;4.17;100.00
3668;BME280;24099;47.102;15.440;2023-04-27T02:54:42;97365.06;;;3.90;100.00
3668;BME280;24099;47.102;15.440;2023-04-27T02:57:09;97368.78;;;3.97;100.00
3668;BME280;24099;47.102;15.440;2023-04-27T02:59:39;97376.59;;;3.97;100.00
3668;BME280;24099;47.102;15.440;2023-04-27T03:02:07;97381.94;;;3.95;100.00
3668;BME280;24099;47.102;15.440;2023-04-27T03:04:34;97378.50;;;4.04;100.00
3668;BME280;24099;47.102;15.440;2023-04-27T03:07:17;97383.44;;;4.07;100.00
3668;BME280;24099;47.102;15.440;2023-04-27T03:09:45;97380.41;;;4.02;100.00
3668;BME280;24099;47.102;15.440;2023-04-27T03:12:13;97382.34;;;4.00;100.00
3668;BME280;24099;47.102;15.440;2023-04-27T03:14:43;97379.59;;;4.02;100.00
3668;BME280;24099;47.102;15.440;2023-04-27T03:17:11;97384.53;;;3.76;100.00
3668;BME280;24099;47.102;15.440;2023-04-27T03:19:41;97386.16;;;3.87;100.00
3668;BME280;24099;47.102;15.440;2023-04-27T03:22:09;97387.56;;;4.10;100.00
3668;BME280;24099;47.102;15.440;2023-04-27T03:24:40;97387.84;;;4.17;100.00
3668;BME280;24099;47.102;15.440;2023-04-27T03:27:12;97385.06;;;3.89;100.00
3668;BME280;24099;47.102;15.440;2023-04-27T03:29:46;97384.13;;;4.00;100.00
3668;BME280;24099;47.102;15.440;2023-04-27T03:32:20;97389.63;;;4.06;100.00
3668;BME280;24099;47.102;15.440;2023-04-27T03:34:48;97387.28;;;4.03;100.00
3668;BME280;24099;47.102;15.440;2023-04-27T03:37:23;97382.22;;;3.92;100.00
3668;BME280;24099;47.102;15.440;2023-04-27T03:39:52;97383.00;;;3.73;100.00
3668;BME280;24099;47.102;15.440;2023-04-27T03:42:20;97386.56;;;3.82;100.00
3668;BME280;24099;47.102;15.440;2023-04-27T03:44:50;97390.28;;;3.89;100.00
3668;BME280;24099;47.102;15.440;2023-04-27T03:47:18;97391.09;;;3.90;100.00
3668;BME280;24099;47.102;15.440;2023-04-27T03:49:46;97390.31;;;3.99;100.00
3668;BME280;24099;47.102;15.440;2023-04-27T03:52:17;97393.75;;;3.99;100.00
3668;BME280;24099;47.102;15.440;2023-04-27T03:54:48;97390.16;;;3.91;100.00
3668;BME280;24099;47.102;15.440;2023-04-27T03:57:18;97389.03;;;3.84;100.00
3668;BME280;24099;47.102;15.440;2023-04-27T03:59:50;97391.63;;;3.74;100.00
3668;BME280;24099;47.102;15.440;2023-04-27T04:02:18;97380.41;;;3.83;100.00
3668;BME280;24099;47.102;15.440;2023-04-27T04:04:48;97396.59;;;4.06;100.00
3668;BME280;24099;47.102;15.440;2023-04-27T04:07:17;97397.56;;;3.95;100.00
3668;BME280;24099;47.102;15.440;2023-04-27T04:09:48;97398.53;;;3.94;100.00
3668;BME280;24099;47.102;15.440;2023-04-27T04:12:19;97394.00;;;3.96;100.00
3668;BME280;24099;47.102;15.440;2023-04-27T04:14:47;97396.19;;;3.91;100.00
3668;BME280;24099;47.102;15.440;2023-04-27T04:17:29;97395.19;;;3.83;100.00
3668;BME280;24099;47.102;15.440;2023-04-27T04:20:03;97398.09;;;3.89;100.00
3668;BME280;24099;47.102;15.440;2023-04-27T04:22:36;97402.78;;;3.95;100.00
3668;BME280;24099;47.102;15.440;2023-04-27T04:25:06;97401.91;;;3.85;100.00
3668;BME280;24099;47.102;15.440;2023-04-27T04:27:36;97399.31;;;3.85;100.00
3668;BME280;24099;47.102;15.440;2023-04-27T04:30:04;97402.09;;;3.93;100.00
3668;BME280;24099;47.102;15.440;2023-04-27T04:32:35;97400.19;;;4.14;100.00
3668;BME280;24099;47.102;15.440;2023-04-27T04:35:07;97403.88;;;4.31;100.00
3668;BME280;24099;47.102;15.440;2023-04-27T04:37:35;97404.28;;;4.27;100.00
3668;BME280;24099;47.102;15.440;2023-04-27T04:40:07;97405.13;;;4.27;100.00
3668;BME280;24099;47.102;15.440;2023-04-27T04:42:40;97409.25;;;4.39;100.00
3668;BME280;24099;47.102;15.440;2023-04-27T04:45:09;97402.91;;;4.42;100.00
3668;BME280;24099;47.102;15.440;2023-04-27T04:47:43;97399.09;;;4.36;100.00
3668;BME280;24099;47.102;15.440;2023-04-27T04:50:13;97402.09;;;4.41;100.00
3668;BME280;24099;47.102;15.440;2023-04-27T04:52:44;97402.78;;;4.24;100.00
3668;BME280;24099;47.102;15.440;2023-04-27T04:55:12;97406.91;;;4.27;100.00
3668;BME280;24099;47.102;15.440;2023-04-27T04:57:41;97413.06;;;4.45;100.00
3668;BME280;24099;47.102;15.440;2023-04-27T05:00:10;97406.78;;;4.57;100.00
3668;BME280;24099;47.102;15.440;2023-04-27T05:02:40;97407.84;;;4.64;100.00
3668;BME280;24099;47.102;15.440;2023-04-27T05:05:31;97406.59;;;4.68;100.00
3668;BME280;24099;47.102;15.440;2023-04-27T05:08:00;97408.13;;;4.71;100.00
3668;BME280;24099;47.102;15.440;2023-04-27T05:10:28;97414.44;;;4.78;100.00
3668;BME280;24099;47.102;15.440;2023-04-27T05:12:56;97407.66;;;4.85;100.00
3668;BME280;24099;47.102;15.440;2023-04-27T05:15:24;97409.31;;;4.96;100.00
3668;BME280;24099;47.102;15.440;2023-04-27T05:17:52;97403.38;;;5.03;100.00
3668;BME280;24099;47.102;15.440;2023-04-27T05:20:24;97405.00;;;5.14;100.00
3668;BME280;24099;47.102;15.440;2023-04-27T05:22:57;97409.34;;;5.23;100.00
3668;BME280;24099;47.102;15.440;2023-04-27T05:25:40;97405.50;;;5.27;100.00
3668;BME280;24099;47.102;15.440;2023-04-27T05:28:08;97408.38;;;5.34;100.00
3668;BME280;24099;47.102;15.440;2023-04-27T05:30:46;97405.69;;;5.53;100.00
3668;BME280;24099;47.102;15.440;2023-04-27T05:33:14;97398.59;;;5.63;100.00
3668;BME280;24099;47.102;15.440;2023-04-27T05:35:43;97391.41;;;5.75;100.00
3668;BME280;24099;47.102;15.440;2023-04-27T05:38:12;97388.38;;;5.79;100.00
3668;BME280;24099;47.102;15.440;2023-04-27T05:40:43;97388.72;;;5.84;100.00
3668;BME280;24099;47.102;15.440;2023-04-27T05:43:24;97384.59;;;5.92;100.00
3668;BME280;24099;47.102;15.440;2023-04-27T05:45:52;97393.31;;;6.00;100.00
3668;BME280;24099;47.102;15.440;2023-04-27T05:48:20;97382.59;;;6.03;100.00
3668;BME280;24099;47.102;15.440;2023-04-27T05:50:58;97392.59;;;6.08;100.00
3668;BME280;24099;47.102;15.440;2023-04-27T05:53:27;97388.72;;;6.12;100.00
3668;BME280;24099;47.102;15.440;2023-04-27T05:55:55;97381.31;;;6.25;100.00
3668;BME280;24099;47.102;15.440;2023-04-27T05:58:24;97379.31;;;6.37;100.00
3668;BME280;24099;47.102;15.440;2023-04-27T06:00:53;97382.44;;;6.40;100.00
3668;BME280;24099;47.102;15.440;2023-04-27T06:03:21;97381.41;;;6.51;100.00
3668;BME280;24099;47.102;15.440;2023-04-27T06:05:55;97377.66;;;6.53;100.00
3668;BME280;24099;47.102;15.440;2023-04-27T06:08:25;97382.94;;;6.62;100.00
3668;BME280;24099;47.102;15.440;2023-04-27T06:11:05;97372.41;;;6.71;100.00
3668;BME280;24099;47.102;15.440;2023-04-27T06:13:42;97379.13;;;6.74;100.00
3668;BME280;24099;47.102;15.440;2023-04-27T06:16:11;97380.66;;;6.84;100.00
3668;BME280;24099;47.102;15.440;2023-04-27T06:18:41;97376.09;;;6.86;100.00
3668;BME280;24099;47.102;15.440;2023-04-27T06:21:11;97377.53;;;7.07;100.00
3668;BME280;24099;47.102;15.440;2023-04-27T06:23:42;97377.59;;;7.15;100.00
3668;BME280;24099;47.102;15.440;2023-04-27T06:26:10;97387.09;;;7.24;100.00
3668;BME280;24099;47.102;15.440;2023-04-27T06:28:38;97385.88;;;7.36;100.00
3668;BME280;24099;47.102;15.440;2023-04-27T06:31:07;97391.25;;;7.35;100.00
3668;BME280;24099;47.102;15.440;2023-04-27T06:33:36;97384.91;;;7.45;100.00
3668;BME280;24099;47.102;15.440;2023-04-27T06:36:10;97379.56;;;7.55;100.00
3668;BME280;24099;47.102;15.440;2023-04-27T06:38:40;97375.16;;;7.64;100.00
3668;BME280;24099;47.102;15.440;2023-04-27T06:41:09;97378.03;;;7.78;100.00
3668;BME280;24099;47.102;15.440;2023-04-27T06:43:56;97362.16;;;7.88;100.00
3668;BME280;24099;47.102;15.440;2023-04-27T06:46:24;97366.75;;;8.02;100.00
3668;BME280;24099;47.102;15.440;2023-04-27T06:48:57;97365.28;;;8.00;100.00
3668;BME280;24099;47.102;15.440;2023-04-27T06:51:29;97365.78;;;8.03;100.00
3668;BME280;24099;47.102;15.440;2023-04-27T06:53:58;97369.56;;;8.09;100.00
3668;BME280;24099;47.102;15.440;2023-04-27T06:56:25;97362.88;;;8.14;100.00
3668;BME280;24099;47.102;15.440;2023-04-27T06:58:57;97368.75;;;8.24;100.00
3668;BME280;24099;47.102;15.440;2023-04-27T07:01:36;97372.38;;;8.32;100.00
3668;BME280;24099;47.102;15.440;2023-04-27T07:04:04;97369.25;;;8.28;100.00
3668;BME280;24099;47.102;15.440;2023-04-27T07:06:36;97372.75;;;8.37;100.00
3668;BME280;24099;47.102;15.440;2023-04-27T07:09:04;97367.81;;;8.66;100.00
3668;BME280;24099;47.102;15.440;2023-04-27T07:11:33;97363.88;;;8.62;100.00
3668;BME280;24099;47.102;15.440;2023-04-27T07:14:20;97365.38;;;8.73;100.00
3668;BME280;24099;47.102;15.440;2023-04-27T07:16:57;97364.06;;;8.77;100.00
3668;BME280;24099;47.102;15.440;2023-04-27T07:19:44;97362.69;;;9.05;100.00
3668;BME280;24099;47.102;15.440;2023-04-27T07:22:16;97356.31;;;8.91;100.00
3668;BME280;24099;47.102;15.440;2023-04-27T07:24:55;97356.00;;;8.94;100.00
3668;BME280;24099;47.102;15.440;2023-04-27T07:27:37;97356.50;;;8.98;100.00
3668;BME280;24099;47.102;15.440;2023-04-27T07:30:07;97351.25;;;8.74;100.00
3668;BME280;24099;47.102;15.440;2023-04-27T07:32:51;97359.44;;;8.87;100.00
3668;BME280;24099;47.102;15.440;2023-04-27T07:35:19;97350.25;;;8.99;100.00
3668;BME280;24099;47.102;15.440;2023-04-27T07:37:55;97347.69;;;9.22;100.00
3668;BME280;24099;47.102;15.440;2023-04-27T07:40:33;97352.28;;;9.28;100.00
3668;BME280;24099;47.102;15.440;2023-04-27T07:43:01;97350.53;;;9.12;100.00
3668;BME280;24099;47.102;15.440;2023-04-27T07:45:30;97348.69;;;9.29;100.00
3668;BME280;24099;47.102;15.440;2023-04-27T07:47:59;97353.59;;;9.32;100.00
3668;BME280;24099;47.102;15.440;2023-04-27T07:50:28;97353.19;;;9.51;99.40
3668;BME280;24099;47.102;15.440;2023-04-27T07:52:59;97350.75;;;9.50;98.87
3668;BME280;24099;47.102;15.440;2023-04-27T07:55:31;97360.97;;;9.76;100.00
3668;BME280;24099;47.102;15.440;2023-04-27T07:57:59;97357.84;;;10.03;100.00
3668;BME280;24099;47.102;15.440;2023-04-27T08:00:27;97354.75;;;9.99;96.19
3668;BME280;24099;47.102;15.440;2023-04-27T08:02:55;97354.41;;;9.72;93.42
3668;BME280;24099;47.102;15.440;2023-04-27T08:05:23;97350.41;;;9.45;93.31
3668;BME280;24099;47.102;15.440;2023-04-27T08:07:55;97342.66;;;9.90;95.41
3668;BME280;24099;47.102;15.440;2023-04-27T08:10:42;97350.09;;;10.10;94.63
3668;BME280;24099;47.102;15.440;2023-04-27T08:13:10;97341.94;;;10.27;92.58
3668;BME280;24099;47.102;15.440;2023-04-27T08:15:42;97346.84;;;10.30;89.74
3668;BME280;24099;47.102;15.440;2023-04-27T08:18:10;97355.94;;;9.97;88.41
3668;BME280;24099;47.102;15.440;2023-04-27T08:20:41;97346.63;;;10.09;91.82
3668;BME280;24099;47.102;15.440;2023-04-27T08:23:09;97342.50;;;10.15;90.75
3668;BME280;24099;47.102;15.440;2023-04-27T08:25:37;97337.84;;;10.48;88.49
3668;BME280;24099;47.102;15.440;2023-04-27T08:28:07;97338.66;;;10.86;88.51
3668;BME280;24099;47.102;15.440;2023-04-27T08:30:35;97333.69;;;11.05;87.11
3668;BME280;24099;47.102;15.440;2023-04-27T08:33:03;97333.91;;;10.81;84.63
3668;BME280;24099;47.102;15.440;2023-04-27T08:35:32;97338.38;;;10.20;85.06
3668;BME280;24099;47.102;15.440;2023-04-27T08:38:01;97330.75;;;11.00;86.98
3668;BME280;24099;47.102;15.440;2023-04-27T08:40:29;97331.75;;;11.44;86.33
3668;BME280;24099;47.102;15.440;2023-04-27T08:42:58;97336.41;;;11.56;85.77
3668;BME280;24099;47.102;15.440;2023-04-27T08:45:33;97331.72;;;11.88;86.46
3668;BME280;24099;47.102;15.440;2023-04-27T08:48:05;97333.19;;;11.90;83.88
3668;BME280;24099;47.102;15.440;2023-04-27T08:50:33;97331.00;;;12.15;85.08
3668;BME280;24099;47.102;15.440;2023-04-27T08:53:02;97326.56;;;12.16;80.92
3668;BME280;24099;47.102;15.440;2023-04-27T08:55:34;97317.00;;;11.64;81.31
3668;BME280;24099;47.102;15.440;2023-04-27T08:58:05;97322.56;;;11.69;81.19
3668;BME280;24099;47.102;15.440;2023-04-27T09:00:44;97325.34;;;11.97;81.18
3668;BME280;24099;47.102;15.440;2023-04-27T09:03:22;97320.28;;;12.38;82.51
3668;BME280;24099;47.102;15.440;2023-04-27T09:05:51;97315.47;;;12.48;79.22
3668;BME280;24099;47.102;15.440;2023-04-27T09:08:19;97306.94;;;12.25;78.85
3668;BME280;24099;47.102;15.440;2023-04-27T09:10:48;97322.31;;;12.00;79.66
3668;BME280;24099;47.102;15.440;2023-04-27T09:13:17;97319.16;;;11.90;82.64
3668;BME280;24099;47.102;15.440;2023-04-27T09:15:47;97313.72;;;12.55;79.36
3668;BME280;24099;47.102;15.440;2023-04-27T09:18:17;97316.97;;;11.93;80.02
3668;BME280;24099;47.102;15.440;2023-04-27T09:20:50;97310.41;;;12.25;81.80
3668;BME280;24099;47.102;15.440;2023-04-27T09:23:28;97311.25;;;12.82;80.74
3668;BME280;24099;47.102;15.440;2023-04-27T09:26:00;97305.31;;;12.73;78.44
3668;BME280;24099;47.102;15.440;2023-04-27T09:28:29;97302.81;;;12.93;78.37
3668;BME280;24099;47.102;15.440;2023-04-27T09:31:03;97304.44;;;12.94;77.77
3668;BME280;24099;47.102;15.440;2023-04-27T09:33:54;97296.41;;;12.74;77.14
3668;BME280;24099;47.102;15.440;2023-04-27T09:36:23;97294.47;;;13.24;77.98
3668;BME280;24099;47.102;15.440;2023-04-27T09:38:52;97290.72;;;13.46;74.61
3668;BME280;24099;47.102;15.440;2023-04-27T09:41:21;97295.03;;;13.54;76.02
3668;BME280;24099;47.102;15.440;2023-04-27T09:43:50;97283.91;;;13.17;73.73
3668;BME280;24099;47.102;15.440;2023-04-27T09:46:20;97282.50;;;13.82;75.28
3668;BME280;24099;47.102;15.440;2023-04-27T09:48:50;97276.34;;;13.62;75.27
3668;BME280;24099;47.102;15.440;2023-04-27T09:51:19;97272.31;;;13.79;75.84
3668;BME280;24099;47.102;15.440;2023-04-27T09:53:54;97268.34;;;14.09;73.77
3668;BME280;24099;47.102;15.440;2023-04-27T09:56:30;97261.00;;;14.05;74.88
3668;BME280;24099;47.102;15.440;2023-04-27T09:59:17;97270.22;;;14.48;73.37
3668;BME280;24099;47.102;15.440;2023-04-27T10:01:56;97261.44;;;14.15;74.43
3668;BME280;24099;47.102;15.440;2023-04-27T10:04:42;97261.03;;;14.18;75.49
3668;BME280;24099;47.102;15.440;2023-04-27T10:07:13;97265.53;;;14.44;75.69
3668;BME280;24099;47.102;15.440;2023-04-27T10:09:59;97262.06;;;14.70;73.77
3668;BME280;24099;47.102;15.440;2023-04-27T10:12:31;97260.44;;;14.42;69.93
3668;BME280;24099;47.102;15.440;2023-04-27T10:15:10;97257.53;;;13.98;73.30
3668;BME280;24099;47.102;15.440;2023-04-27T10:17:47;97247.94;;;15.02;71.51
3668;BME280;24099;47.102;15.440;2023-04-27T10:20:15;97256.13;;;14.88;72.12
3668;BME280;24099;47.102;15.440;2023-04-27T10:22:45;97243.47;;;14.90;72.20
3668;BME280;24099;47.102;15.440;2023-04-27T10:25:16;97246.69;;;15.11;73.17
3668;BME280;24099;47.102;15.440;2023-04-27T10:27:47;97240.84;;;14.90;73.15
3668;BME280;24099;47.102;15.440;2023-04-27T10:30:19;97245.47;;;15.14;74.29
3668;BME280;24099;47.102;15.440;2023-04-27T10:32:53;97242.63;;;15.02;72.44
3668;BME280;24099;47.102;15.440;2023-04-27T10:35:30;97237.91;;;15.69;71.68
3668;BME280;24099;47.102;15.440;2023-04-27T10:38:05;97240.69;;;15.36;70.32
3668;BME280;24099;47.102;15.440;2023-04-27T10:40:34;97234.81;;;15.21;72.34
3668;BME280;24099;47.102;15.440;2023-04-27T10:43:09;97232.81;;;15.67;71.03
3668;BME280;24099;47.102;15.440;2023-04-27T10:45:38;97228.88;;;14.47;69.71
3668;BME280;24099;47.102;15.440;2023-04-27T10:48:08;97229.84;;;14.20;74.21
3668;BME280;24099;47.102;15.440;2023-04-27T10:50:39;97225.69;;;15.16;72.67
3668;BME280;24099;47.102;15.440;2023-04-27T10:53:08;97225.53;;;15.49;71.04
3668;BME280;24099;47.102;15.440;2023-04-27T10:55:36;97221.88;;;15.89;71.39
3668;BME280;24099;47.102;15.440;2023-04-27T10:58:05;97220.13;;;16.07;69.00
3668;BME280;24099;47.102;15.440;2023-04-27T11:00:35;97222.28;;;15.41;70.67
3668;BME280;24099;47.102;15.440;2023-04-27T11:03:13;97225.94;;;15.46;73.16
3668;BME280;24099;47.102;15.440;2023-04-27T11:05:44;97214.81;;;15.25;70.10
3668;BME280;24099;47.102;15.440;2023-04-27T11:08:14;97221.25;;;15.48;71.01
3668;BME280;24099;47.102;15.440;2023-04-27T11:10:44;97214.13;;;15.42;67.72
3668;BME280;24099;47.102;15.440;2023-04-27T11:13:17;97224.41;;;15.26;69.56
3668;BME280;24099;47.102;15.440;2023-04-27T11:15:47;97218.06;;;15.33;69.49
3668;BME280;24099;47.102;15.440;2023-04-27T11:18:19;97219.22;;;15.44;70.06
3668;BME280;24099;47.102;15.440;2023-04-27T11:20:48;97220.78;;;15.65;71.60
3668;BME280;24099;47.102;15.440;2023-04-27T11:23:25;97220.84;;;15.51;72.40
3668;BME280;24099;47.102;15.440;2023-04-27T11:25:54;97224.19;;;15.34;70.20
3668;BME280;24099;47.102;15.440;2023-04-27T11:28:23;97222.13;;;15.36;68.96
3668;BME280;24099;47.102;15.440;2023-04-27T11:30:58;97221.75;;;15.26;69.07
3668;BME280;24099;47.102;15.440;2023-04-27T11:33:31;97217.88;;;15.28;69.18
3668;BME280;24099;47.102;15.440;2023-04-27T11:35:59;97223.03;;;15.16;70.27
3668;BME280;24099;47.102;15.440;2023-04-27T11:38:32;97220.44;;;14.90;69.75
3668;BME280;24099;47.102;15.440;2023-04-27T11:41:02;97219.91;;;15.33;68.97
3668;BME280;24099;47.102;15.440;2023-04-27T11:43:31;97222.56;;;15.26;67.80
3668;BME280;24099;47.102;15.440;2023-04-27T11:46:02;97227.22;;;14.60;68.16
3668;BME280;24099;47.102;15.440;2023-04-27T11:48:35;97220.44;;;14.83;72.19
3668;BME280;24099;47.102;15.440;2023-04-27T11:51:06;97222.28;;;14.90;71.20
3668;BME280;24099;47.102;15.440;2023-04-27T11:53:36;97223.09;;;14.90;71.20
3668;BME280;24099;47.102;15.440;2023-04-27T11:56:06;97224.97;;;14.10;72.06
3668;BME280;24099;47.102;15.440;2023-04-27T11:58:34;97218.25;;;14.74;72.47
3668;BME280;24099;47.102;15.440;2023-04-27T12:01:02;97232.31;;;14.68;71.25
3668;BME280;24099;47.102;15.440;2023-04-27T12:03:33;97232.75;;;14.58;72.95
3668;BME280;24099;47.102;15.440;2023-04-27T12:06:05;97234.09;;;14.80;73.70
3668;BME280;24099;47.102;15.440;2023-04-27T12:08:33;97234.94;;;14.88;72.05
3668;BME280;24099;47.102;15.440;2023-04-27T12:11:00;97231.25;;;14.82;74.91
3668;BME280;24099;47.102;15.440;2023-04-27T12:13:29;97234.72;;;14.96;71.92
3668;BME280;24099;47.102;15.440;2023-04-27T12:15:57;97235.34;;;14.85;71.84
3668;BME280;24099;47.102;15.440;2023-04-27T12:18:25;97238.19;;;14.96;71.25
3668;BME280;24099;47.102;15.440;2023-04-27T12:20:54;97221.47;;;14.89;70.85
3668;BME280;24099;47.102;15.440;2023-04-27T12:23:23;97224.53;;;14.86;69.34
3668;BME280;24099;47.102;15.440;2023-04-27T12:25:51;97219.59;;;15.03;69.83
3668;BME280;24099;47.102;15.440;2023-04-27T12:28:19;97219.97;;;15.13;72.11
3668;BME280;24099;47.102;15.440;2023-04-27T12:30:47;97218.91;;;15.27;72.29
3668;BME280;24099;47.102;15.440;2023-04-27T12:33:15;97213.72;;;15.45;71.57
3668;BME280;24099;47.102;15.440;2023-04-27T12:35:43;97218.47;;;15.37;70.79
3668;BME280;24099;47.102;15.440;2023-04-27T12:38:13;97220.28;;;14.78;70.76
3668;BME280;24099;47.102;15.440;2023-04-27T12:40:43;97215.09;;;15.10;70.76
3668;BME280;24099;47.102;15.440;2023-04-27T12:43:15;97218.22;;;14.87;71.88
3668;BME280;24099;47.102;15.440;2023-04-27T12:45:43;97213.78;;;15.26;70.89
3668;BME280;24099;47.102;15.440;2023-04-27T12:48:11;97213.84;;;15.12;68.78
3668;BME280;24099;47.102;15.440;2023-04-27T12:50:41;97214.06;;;15.04;69.04
3668;BME280;24099;47.102;15.440;2023-04-27T12:53:09;97207.06;;;15.74;69.13
3668;BME280;24099;47.102;15.440;2023-04-27T12:55:39;97201.53;;;15.38;67.34
3668;BME280;24099;47.102;15.440;2023-04-27T12:58:06;97210.59;;;15.17;70.36
3668;BME280;24099;47.102;15.440;2023-04-27T13:00:37;97199.91;;;15.30;71.76
3668;BME280;24099;47.102;15.440;2023-04-27T13:03:05;97206.78;;;14.93;72.75
3668;BME280;24099;47.102;15.440;2023-04-27T13:05:34;97210.94;;;14.43;71.02
3668;BME280;24099;47.102;15.440;2023-04-27T13:08:02;97205.03;;;15.25;71.62
3668;BME280;24099;47.102;15.440;2023-04-27T13:10:31;97212.97;;;15.25;72.33
3668;BME280;24099;47.102;15.440;2023-04-27T13:13:01;97210.03;;;14.95;72.46
3668;BME280;24099;47.102;15.440;2023-04-27T13:15:29;97211.41;;;15.11;70.77
3668;BME280;24099;47.102;15.440;2023-04-27T13:17:57;97204.41;;;15.23;70.72
3668;BME280;24099;47.102;15.440;2023-04-27T13:20:25;97202.72;;;15.42;70.13
3668;BME280;24099;47.102;15.440;2023-04-27T13:22:55;97210.22;;;15.51;69.55